sensor_id;sensor_type;location;lat;lon;timestamp;P1;durP1;ratioP1;P2;durP2;ratioP2
44169;SDS011;29836;52.286;9.576;2024-01-15T00:01:46;13.80;;;5.25;;
44169;SDS011;29836;52.286;9.576;2024-01-15T00:04:12;10.70;;;4.18;;
44169;SDS011;29836;52.286;9.576;2024-01-15T00:06:37;10.27;;;4.68;;
44169;SDS011;29836;52.286;9.576;2024-01-15T00:09:03;11.45;;;4.15;;
44169;SDS011;29836;52.286;9.576;2024-01-15T00:11:29;10.75;;;4.50;;
44169;SDS011;29836;52.286;9.576;2024-01-15T00:13:54;9.60;;;4.78;;
44169;SDS011;29836;52.286;9.576;2024-01-15T00:16:20;8.45;;;4.20;;
44169;SDS011;29836;52.286;9.576;2024-01-15T00:18:45;7.35;;;3.85;;
44169;SDS011;29836;52.286;9.576;2024-01-15T00:21:11;7.80;;;4.43;;
44169;SDS011;29836;52.286;9.576;2024-01-15T00:23:36;6.28;;;2.88;;
44169;SDS011;29836;52.286;9.576;2024-01-15T00:26:02;8.20;;;4.18;;
44169;SDS011;29836;52.286;9.576;2024-01-15T00:28:27;7.25;;;3.40;;
44169;SDS011;29836;52.286;9.576;2024-01-15T00:30:53;12.30;;;5.00;;
44169;SDS011;29836;52.286;9.576;2024-01-15T00:33:18;7.22;;;4.38;;
44169;SDS011;29836;52.286;9.576;2024-01-15T00:35:44;6.03;;;3.08;;
44169;SDS011;29836;52.286;9.576;2024-01-15T00:38:09;9.23;;;4.68;;
44169;SDS011;29836;52.286;9.576;2024-01-15T00:40:35;8.65;;;3.55;;
44169;SDS011;29836;52.286;9.576;2024-01-15T00:43:00;7.32;;;4.00;;
44169;SDS011;29836;52.286;9.576;2024-01-15T00:45:27;8.15;;;3.80;;
44169;SDS011;29836;52.286;9.576;2024-01-15T00:47:52;7.65;;;3.58;;
44169;SDS011;29836;52.286;9.576;2024-01-15T00:50:18;9.20;;;3.95;;
44169;SDS011;29836;52.286;9.576;2024-01-15T00:52:43;8.55;;;3.53;;
44169;SDS011;29836;52.286;9.576;2024-01-15T00:55:09;7.15;;;3.88;;
44169;SDS011;29836;52.286;9.576;2024-01-15T00:57:34;7.13;;;2.60;;
44169;SDS011;29836;52.286;9.576;2024-01-15T01:00:00;10.02;;;3.08;;
44169;SDS011;29836;52.286;9.576;2024-01-15T01:02:26;7.32;;;3.08;;
44169;SDS011;29836;52.286;9.576;2024-01-15T01:04:51;7.57;;;3.58;;
44169;SDS011;29836;52.286;9.576;2024-01-15T01:07:17;8.55;;;3.47;;
44169;SDS011;29836;52.286;9.576;2024-01-15T01:09:42;11.35;;;3.80;;
44169;SDS011;29836;52.286;9.576;2024-01-15T01:12:08;6.35;;;2.88;;
44169;SDS011;29836;52.286;9.576;2024-01-15T01:14:34;9.05;;;2.63;;
44169;SDS011;29836;52.286;9.576;2024-01-15T01:17:00;5.10;;;2.45;;
44169;SDS011;29836;52.286;9.576;2024-01-15T01:19:25;11.30;;;2.97;;
44169;SDS011;29836;52.286;9.576;2024-01-15T01:21:51;11.13;;;3.10;;
44169;SDS011;29836;52.286;9.576;2024-01-15T01:24:16;11.82;;;3.75;;
44169;SDS011;29836;52.286;9.576;2024-01-15T01:26:42;8.27;;;3.92;;
44169;SDS011;29836;52.286;9.576;2024-01-15T01:29:07;10.38;;;2.97;;
44169;SDS011;29836;52.286;9.576;2024-01-15T01:31:33;7.20;;;2.83;;
44169;SDS011;29836;52.286;9.576;2024-01-15T01:33:58;6.07;;;2.40;;
44169;SDS011;29836;52.286;9.576;2024-01-15T01:36:24;14.50;;;3.42;;
44169;SDS011;29836;52.286;9.576;2024-01-15T01:38:50;5.57;;;2.78;;
44169;SDS011;29836;52.286;9.576;2024-01-15T01:41:15;6.10;;;2.63;;
44169;SDS011;29836;52.286;9.576;2024-01-15T01:43:41;7.00;;;2.58;;
44169;SDS011;29836;52.286;9.576;2024-01-15T01:46:06;14.98;;;2.85;;
44169;SDS011;29836;52.286;9.576;2024-01-15T01:48:32;10.43;;;3.83;;
44169;SDS011;29836;52.286;9.576;2024-01-15T01:50:59;7.75;;;2.88;;
44169;SDS011;29836;52.286;9.576;2024-01-15T01:53:27;7.75;;;2.92;;
44169;SDS011;29836;52.286;9.576;2024-01-15T01:55:54;10.75;;;3.35;;
44169;SDS011;29836;52.286;9.576;2024-01-15T01:58:22;13.35;;;2.95;;
44169;SDS011;29836;52.286;9.576;2024-01-15T02:00:47;7.78;;;3.15;;
44169;SDS011;29836;52.286;9.576;2024-01-15T02:03:14;11.40;;;2.97;;
44169;SDS011;29836;52.286;9.576;2024-01-15T02:05:40;11.48;;;3.15;;
44169;SDS011;29836;52.286;9.576;2024-01-15T02:08:09;5.65;;;2.10;;
44169;SDS011;29836;52.286;9.576;2024-01-15T02:10:35;6.60;;;2.92;;
44169;SDS011;29836;52.286;9.576;2024-01-15T02:13:00;9.93;;;2.45;;
44169;SDS011;29836;52.286;9.576;2024-01-15T02:15:26;12.77;;;3.15;;
44169;SDS011;29836;52.286;9.576;2024-01-15T02:20:24;6.50;;;2.53;;
44169;SDS011;29836;52.286;9.576;2024-01-15T02:22:50;5.10;;;2.38;;
44169;SDS011;29836;52.286;9.576;2024-01-15T02:25:15;9.60;;;2.50;;
44169;SDS011;29836;52.286;9.576;2024-01-15T02:27:41;10.48;;;2.08;;
44169;SDS011;29836;52.286;9.576;2024-01-15T02:30:08;3.22;;;2.10;;
44169;SDS011;29836;52.286;9.576;2024-01-15T02:32:36;5.55;;;1.88;;
44169;SDS011;29836;52.286;9.576;2024-01-15T02:35:02;5.10;;;1.70;;
44169;SDS011;29836;52.286;9.576;2024-01-15T02:37:27;4.63;;;1.73;;
44169;SDS011;29836;52.286;9.576;2024-01-15T02:39:53;3.88;;;1.27;;
44169;SDS011;29836;52.286;9.576;2024-01-15T02:42:18;7.07;;;1.83;;
44169;SDS011;29836;52.286;9.576;2024-01-15T02:44:44;11.73;;;2.45;;
44169;SDS011;29836;52.286;9.576;2024-01-15T02:47:09;2.55;;;1.50;;
44169;SDS011;29836;52.286;9.576;2024-01-15T02:49:35;8.95;;;2.13;;
44169;SDS011;29836;52.286;9.576;2024-01-15T02:52:00;8.98;;;1.92;;
44169;SDS011;29836;52.286;9.576;2024-01-15T02:54:26;5.75;;;1.77;;
44169;SDS011;29836;52.286;9.576;2024-01-15T02:56:51;3.60;;;1.48;;
44169;SDS011;29836;52.286;9.576;2024-01-15T02:59:17;6.30;;;1.60;;
44169;SDS011;29836;52.286;9.576;2024-01-15T03:01:42;8.75;;;1.65;;
44169;SDS011;29836;52.286;9.576;2024-01-15T03:04:08;4.07;;;1.55;;
44169;SDS011;29836;52.286;9.576;2024-01-15T03:06:33;4.75;;;1.45;;
44169;SDS011;29836;52.286;9.576;2024-01-15T03:08:59;6.07;;;1.55;;
44169;SDS011;29836;52.286;9.576;2024-01-15T03:11:25;7.15;;;1.80;;
44169;SDS011;29836;52.286;9.576;2024-01-15T03:13:51;3.58;;;1.10;;
44169;SDS011;29836;52.286;9.576;2024-01-15T03:16:16;5.32;;;2.00;;
44169;SDS011;29836;52.286;9.576;2024-01-15T03:18:44;7.43;;;2.47;;
44169;SDS011;29836;52.286;9.576;2024-01-15T03:21:10;7.68;;;1.65;;
44169;SDS011;29836;52.286;9.576;2024-01-15T03:23:35;7.15;;;1.52;;
44169;SDS011;29836;52.286;9.576;2024-01-15T03:26:01;15.38;;;1.75;;
44169;SDS011;29836;52.286;9.576;2024-01-15T03:28:26;10.20;;;1.70;;
44169;SDS011;29836;52.286;9.576;2024-01-15T03:30:52;4.30;;;1.30;;
44169;SDS011;29836;52.286;9.576;2024-01-15T03:33:17;3.08;;;1.40;;
44169;SDS011;29836;52.286;9.576;2024-01-15T03:35:43;5.95;;;1.15;;
44169;SDS011;29836;52.286;9.576;2024-01-15T03:38:08;10.13;;;1.98;;
44169;SDS011;29836;52.286;9.576;2024-01-15T03:40:34;7.97;;;1.40;;
44169;SDS011;29836;52.286;9.576;2024-01-15T03:42:59;5.72;;;1.55;;
44169;SDS011;29836;52.286;9.576;2024-01-15T03:45:25;7.13;;;1.85;;
44169;SDS011;29836;52.286;9.576;2024-01-15T03:47:50;7.40;;;1.77;;
44169;SDS011;29836;52.286;9.576;2024-01-15T03:50:16;6.18;;;1.83;;
44169;SDS011;29836;52.286;9.576;2024-01-15T03:52:42;12.07;;;2.50;;
44169;SDS011;29836;52.286;9.576;2024-01-15T03:55:07;8.30;;;2.28;;
44169;SDS011;29836;52.286;9.576;2024-01-15T03:57:33;7.18;;;2.15;;
44169;SDS011;29836;52.286;9.576;2024-01-15T03:59:58;3.60;;;1.38;;
44169;SDS011;29836;52.286;9.576;2024-01-15T04:02:24;7.15;;;1.70;;
44169;SDS011;29836;52.286;9.576;2024-01-15T04:04:49;4.35;;;2.03;;
44169;SDS011;29836;52.286;9.576;2024-01-15T04:07:15;5.85;;;1.77;;
44169;SDS011;29836;52.286;9.576;2024-01-15T04:09:40;4.45;;;1.33;;
44169;SDS011;29836;52.286;9.576;2024-01-15T04:12:06;5.60;;;1.30;;
44169;SDS011;29836;52.286;9.576;2024-01-15T04:14:32;4.25;;;1.08;;
44169;SDS011;29836;52.286;9.576;2024-01-15T04:16:57;3.90;;;1.42;;
44169;SDS011;29836;52.286;9.576;2024-01-15T04:19:23;5.63;;;1.00;;
44169;SDS011;29836;52.286;9.576;2024-01-15T04:21:48;2.45;;;1.13;;
44169;SDS011;29836;52.286;9.576;2024-01-15T04:24:14;6.85;;;1.00;;
44169;SDS011;29836;52.286;9.576;2024-01-15T04:26:39;2.53;;;1.30;;
44169;SDS011;29836;52.286;9.576;2024-01-15T04:29:05;3.70;;;1.30;;
44169;SDS011;29836;52.286;9.576;2024-01-15T04:31:30;5.60;;;1.42;;
44169;SDS011;29836;52.286;9.576;2024-01-15T04:33:56;8.27;;;1.00;;
44169;SDS011;29836;52.286;9.576;2024-01-15T04:36:21;8.10;;;2.33;;
44169;SDS011;29836;52.286;9.576;2024-01-15T04:38:47;6.25;;;1.55;;
44169;SDS011;29836;52.286;9.576;2024-01-15T04:41:13;8.40;;;1.60;;
44169;SDS011;29836;52.286;9.576;2024-01-15T04:43:39;6.82;;;1.00;;
44169;SDS011;29836;52.286;9.576;2024-01-15T04:46:07;7.78;;;1.80;;
44169;SDS011;29836;52.286;9.576;2024-01-15T04:48:33;7.30;;;2.22;;
44169;SDS011;29836;52.286;9.576;2024-01-15T04:50:59;7.22;;;2.53;;
44169;SDS011;29836;52.286;9.576;2024-01-15T04:53:25;7.72;;;2.35;;
44169;SDS011;29836;52.286;9.576;2024-01-15T04:55:51;4.25;;;1.42;;
44169;SDS011;29836;52.286;9.576;2024-01-15T04:58:16;6.15;;;2.00;;
44169;SDS011;29836;52.286;9.576;2024-01-15T05:00:42;5.22;;;1.33;;
44169;SDS011;29836;52.286;9.576;2024-01-15T05:03:07;10.10;;;1.20;;
44169;SDS011;29836;52.286;9.576;2024-01-15T05:05:33;4.97;;;1.15;;
44169;SDS011;29836;52.286;9.576;2024-01-15T05:07:58;3.80;;;1.48;;
44169;SDS011;29836;52.286;9.576;2024-01-15T05:10:24;10.30;;;1.30;;
44169;SDS011;29836;52.286;9.576;2024-01-15T05:12:49;7.30;;;1.60;;
44169;SDS011;29836;52.286;9.576;2024-01-15T05:15:15;6.50;;;1.42;;
44169;SDS011;29836;52.286;9.576;2024-01-15T05:17:40;10.48;;;1.38;;
44169;SDS011;29836;52.286;9.576;2024-01-15T05:20:06;7.45;;;2.05;;
44169;SDS011;29836;52.286;9.576;2024-01-15T05:22:32;9.43;;;3.15;;
44169;SDS011;29836;52.286;9.576;2024-01-15T05:24:57;8.68;;;1.77;;
44169;SDS011;29836;52.286;9.576;2024-01-15T05:27:23;3.90;;;1.42;;
44169;SDS011;29836;52.286;9.576;2024-01-15T05:29:49;4.07;;;1.75;;
44169;SDS011;29836;52.286;9.576;2024-01-15T05:32:14;5.88;;;1.50;;
44169;SDS011;29836;52.286;9.576;2024-01-15T05:34:40;4.85;;;1.73;;
44169;SDS011;29836;52.286;9.576;2024-01-15T05:37:05;4.85;;;1.42;;
44169;SDS011;29836;52.286;9.576;2024-01-15T05:39:31;7.82;;;2.28;;
44169;SDS011;29836;52.286;9.576;2024-01-15T05:41:57;7.47;;;1.38;;
44169;SDS011;29836;52.286;9.576;2024-01-15T05:44:23;4.45;;;1.75;;
44169;SDS011;29836;52.286;9.576;2024-01-15T05:46:48;6.22;;;2.38;;
44169;SDS011;29836;52.286;9.576;2024-01-15T05:49:14;9.48;;;1.65;;
44169;SDS011;29836;52.286;9.576;2024-01-15T05:51:39;5.68;;;2.22;;
44169;SDS011;29836;52.286;9.576;2024-01-15T05:54:05;5.40;;;1.30;;
44169;SDS011;29836;52.286;9.576;2024-01-15T05:56:31;10.25;;;2.28;;
44169;SDS011;29836;52.286;9.576;2024-01-15T05:58:56;8.93;;;1.63;;
44169;SDS011;29836;52.286;9.576;2024-01-15T06:01:22;7.60;;;1.45;;
44169;SDS011;29836;52.286;9.576;2024-01-15T06:03:47;3.85;;;1.52;;
44169;SDS011;29836;52.286;9.576;2024-01-15T06:06:13;4.65;;;1.40;;
44169;SDS011;29836;52.286;9.576;2024-01-15T06:08:38;6.07;;;1.75;;
44169;SDS011;29836;52.286;9.576;2024-01-15T06:11:04;5.38;;;2.40;;
44169;SDS011;29836;52.286;9.576;2024-01-15T06:13:30;9.55;;;2.03;;
44169;SDS011;29836;52.286;9.576;2024-01-15T06:15:55;6.47;;;2.92;;
44169;SDS011;29836;52.286;9.576;2024-01-15T06:18:21;8.82;;;2.70;;
44169;SDS011;29836;52.286;9.576;2024-01-15T06:20:46;4.95;;;1.90;;
44169;SDS011;29836;52.286;9.576;2024-01-15T06:23:12;11.38;;;2.58;;
44169;SDS011;29836;52.286;9.576;2024-01-15T06:25:37;9.35;;;2.60;;
44169;SDS011;29836;52.286;9.576;2024-01-15T06:28:03;13.25;;;2.63;;
44169;SDS011;29836;52.286;9.576;2024-01-15T06:30:30;4.65;;;2.75;;
44169;SDS011;29836;52.286;9.576;2024-01-15T06:32:55;10.70;;;2.38;;
44169;SDS011;29836;52.286;9.576;2024-01-15T06:35:21;7.80;;;1.90;;
44169;SDS011;29836;52.286;9.576;2024-01-15T06:37:46;5.32;;;2.15;;
44169;SDS011;29836;52.286;9.576;2024-01-15T06:40:12;9.23;;;2.58;;
44169;SDS011;29836;52.286;9.576;2024-01-15T06:42:37;5.15;;;2.05;;
44169;SDS011;29836;52.286;9.576;2024-01-15T06:45:03;6.38;;;1.83;;
44169;SDS011;29836;52.286;9.576;2024-01-15T06:47:29;8.68;;;2.33;;
44169;SDS011;29836;52.286;9.576;2024-01-15T06:49:55;4.72;;;2.40;;
44169;SDS011;29836;52.286;9.576;2024-01-15T06:52:21;4.60;;;2.17;;
44169;SDS011;29836;52.286;9.576;2024-01-15T06:54:46;4.25;;;1.45;;
44169;SDS011;29836;52.286;9.576;2024-01-15T06:57:12;9.30;;;2.53;;
44169;SDS011;29836;52.286;9.576;2024-01-15T06:59:38;5.55;;;1.85;;
44169;SDS011;29836;52.286;9.576;2024-01-15T07:02:04;6.28;;;1.77;;
44169;SDS011;29836;52.286;9.576;2024-01-15T07:04:29;5.78;;;1.77;;
44169;SDS011;29836;52.286;9.576;2024-01-15T07:06:55;9.38;;;2.65;;
44169;SDS011;29836;52.286;9.576;2024-01-15T07:09:21;4.60;;;1.33;;
44169;SDS011;29836;52.286;9.576;2024-01-15T07:11:46;13.50;;;4.13;;
44169;SDS011;29836;52.286;9.576;2024-01-15T07:14:12;11.05;;;2.72;;
44169;SDS011;29836;52.286;9.576;2024-01-15T07:16:38;6.40;;;2.55;;
44169;SDS011;29836;52.286;9.576;2024-01-15T07:19:04;9.80;;;3.60;;
44169;SDS011;29836;52.286;9.576;2024-01-15T07:21:29;7.28;;;2.55;;
44169;SDS011;29836;52.286;9.576;2024-01-15T07:23:55;7.00;;;2.03;;
44169;SDS011;29836;52.286;9.576;2024-01-15T07:26:20;3.40;;;1.58;;
44169;SDS011;29836;52.286;9.576;2024-01-15T07:28:46;5.10;;;1.77;;
44169;SDS011;29836;52.286;9.576;2024-01-15T07:31:12;6.97;;;2.42;;
44169;SDS011;29836;52.286;9.576;2024-01-15T07:33:37;8.57;;;1.73;;
44169;SDS011;29836;52.286;9.576;2024-01-15T07:36:03;14.43;;;1.67;;
44169;SDS011;29836;52.286;9.576;2024-01-15T07:38:29;18.48;;;1.95;;
44169;SDS011;29836;52.286;9.576;2024-01-15T07:40:54;4.50;;;1.80;;
44169;SDS011;29836;52.286;9.576;2024-01-15T07:43:20;5.95;;;1.75;;
44169;SDS011;29836;52.286;9.576;2024-01-15T07:45:45;3.28;;;1.40;;
44169;SDS011;29836;52.286;9.576;2024-01-15T07:48:11;5.85;;;1.65;;
44169;SDS011;29836;52.286;9.576;2024-01-15T07:50:37;10.68;;;2.45;;
44169;SDS011;29836;52.286;9.576;2024-01-15T07:53:02;8.82;;;2.00;;
44169;SDS011;29836;52.286;9.576;2024-01-15T07:55:28;4.38;;;1.85;;
44169;SDS011;29836;52.286;9.576;2024-01-15T07:57:54;3.78;;;1.30;;
44169;SDS011;29836;52.286;9.576;2024-01-15T08:00:23;6.47;;;2.08;;
44169;SDS011;29836;52.286;9.576;2024-01-15T08:02:49;4.38;;;1.42;;
44169;SDS011;29836;52.286;9.576;2024-01-15T08:05:16;3.90;;;1.75;;
44169;SDS011;29836;52.286;9.576;2024-01-15T08:07:41;4.07;;;1.70;;
44169;SDS011;29836;52.286;9.576;2024-01-15T08:10:07;5.65;;;1.63;;
44169;SDS011;29836;52.286;9.576;2024-01-15T08:12:33;5.57;;;1.75;;
44169;SDS011;29836;52.286;9.576;2024-01-15T08:14:58;5.07;;;1.58;;
44169;SDS011;29836;52.286;9.576;2024-01-15T08:17:24;6.85;;;2.35;;
44169;SDS011;29836;52.286;9.576;2024-01-15T08:19:53;4.85;;;1.67;;
44169;SDS011;29836;52.286;9.576;2024-01-15T08:22:19;5.75;;;1.38;;
44169;SDS011;29836;52.286;9.576;2024-01-15T08:24:45;8.48;;;2.42;;
44169;SDS011;29836;52.286;9.576;2024-01-15T08:27:10;11.15;;;3.15;;
44169;SDS011;29836;52.286;9.576;2024-01-15T08:29:36;7.90;;;1.70;;
44169;SDS011;29836;52.286;9.576;2024-01-15T08:32:02;3.67;;;1.98;;
44169;SDS011;29836;52.286;9.576;2024-01-15T08:34:27;2.88;;;1.08;;
44169;SDS011;29836;52.286;9.576;2024-01-15T08:36:53;2.30;;;1.30;;
44169;SDS011;29836;52.286;9.576;2024-01-15T08:39:19;3.88;;;1.92;;
44169;SDS011;29836;52.286;9.576;2024-01-15T08:41:44;7.72;;;1.70;;
44169;SDS011;29836;52.286;9.576;2024-01-15T08:44:11;2.53;;;1.45;;
44169;SDS011;29836;52.286;9.576;2024-01-15T08:46:37;3.78;;;1.27;;
44169;SDS011;29836;52.286;9.576;2024-01-15T08:49:03;8.77;;;2.05;;
44169;SDS011;29836;52.286;9.576;2024-01-15T08:51:28;4.20;;;1.63;;
44169;SDS011;29836;52.286;9.576;2024-01-15T08:53:54;5.32;;;2.72;;
44169;SDS011;29836;52.286;9.576;2024-01-15T08:56:20;5.60;;;1.88;;
44169;SDS011;29836;52.286;9.576;2024-01-15T08:58:45;3.45;;;1.60;;
44169;SDS011;29836;52.286;9.576;2024-01-15T09:01:11;1.95;;;1.15;;
44169;SDS011;29836;52.286;9.576;2024-01-15T09:03:36;3.88;;;1.60;;
44169;SDS011;29836;52.286;9.576;2024-01-15T09:06:02;2.35;;;1.45;;
44169;SDS011;29836;52.286;9.576;2024-01-15T09:08:28;4.60;;;1.48;;
44169;SDS011;29836;52.286;9.576;2024-01-15T09:10:53;5.60;;;1.60;;
44169;SDS011;29836;52.286;9.576;2024-01-15T09:13:19;5.57;;;2.28;;
44169;SDS011;29836;52.286;9.576;2024-01-15T09:15:44;4.40;;;1.75;;
44169;SDS011;29836;52.286;9.576;2024-01-15T09:18:10;9.63;;;1.95;;
44169;SDS011;29836;52.286;9.576;2024-01-15T09:20:36;4.30;;;2.13;;
44169;SDS011;29836;52.286;9.576;2024-01-15T09:23:01;3.47;;;1.63;;
44169;SDS011;29836;52.286;9.576;2024-01-15T09:25:27;9.40;;;2.00;;
44169;SDS011;29836;52.286;9.576;2024-01-15T09:27:53;6.35;;;1.48;;
44169;SDS011;29836;52.286;9.576;2024-01-15T09:30:18;4.15;;;2.20;;
44169;SDS011;29836;52.286;9.576;2024-01-15T09:32:44;9.23;;;1.90;;
44169;SDS011;29836;52.286;9.576;2024-01-15T09:35:09;5.50;;;1.58;;
44169;SDS011;29836;52.286;9.576;2024-01-15T09:37:35;4.50;;;1.48;;
44169;SDS011;29836;52.286;9.576;2024-01-15T09:40:02;8.38;;;2.40;;
44169;SDS011;29836;52.286;9.576;2024-01-15T09:42:28;5.40;;;2.05;;
44169;SDS011;29836;52.286;9.576;2024-01-15T09:44:54;6.93;;;1.77;;
44169;SDS011;29836;52.286;9.576;2024-01-15T09:47:20;4.85;;;1.67;;
44169;SDS011;29836;52.286;9.576;2024-01-15T09:49:46;4.97;;;1.58;;
44169;SDS011;29836;52.286;9.576;2024-01-15T09:52:12;8.65;;;1.65;;
44169;SDS011;29836;52.286;9.576;2024-01-15T09:54:40;3.90;;;1.02;;
44169;SDS011;29836;52.286;9.576;2024-01-15T09:57:08;5.10;;;1.35;;
44169;SDS011;29836;52.286;9.576;2024-01-15T09:59:33;3.05;;;1.38;;
44169;SDS011;29836;52.286;9.576;2024-01-15T10:02:00;3.33;;;1.23;;
44169;SDS011;29836;52.286;9.576;2024-01-15T10:04:26;2.50;;;0.88;;
44169;SDS011;29836;52.286;9.576;2024-01-15T10:06:52;1.92;;;1.15;;
44169;SDS011;29836;52.286;9.576;2024-01-15T10:09:20;2.20;;;0.80;;
44169;SDS011;29836;52.286;9.576;2024-01-15T10:11:45;2.70;;;1.00;;
44169;SDS011;29836;52.286;9.576;2024-01-15T10:14:11;2.20;;;1.00;;
44169;SDS011;29836;52.286;9.576;2024-01-15T10:16:40;3.78;;;1.10;;
44169;SDS011;29836;52.286;9.576;2024-01-15T10:19:07;2.17;;;1.10;;
44169;SDS011;29836;52.286;9.576;2024-01-15T10:21:33;4.88;;;1.15;;
44169;SDS011;29836;52.286;9.576;2024-01-15T10:24:00;7.88;;;1.40;;
44169;SDS011;29836;52.286;9.576;2024-01-15T10:26:26;7.13;;;2.03;;
44169;SDS011;29836;52.286;9.576;2024-01-15T10:28:52;3.38;;;1.00;;
44169;SDS011;29836;52.286;9.576;2024-01-15T10:31:17;5.15;;;1.20;;
44169;SDS011;29836;52.286;9.576;2024-01-15T10:33:44;2.10;;;1.08;;
44169;SDS011;29836;52.286;9.576;2024-01-15T10:36:10;2.65;;;1.60;;
44169;SDS011;29836;52.286;9.576;2024-01-15T10:38:38;1.50;;;0.90;;
44169;SDS011;29836;52.286;9.576;2024-01-15T10:41:04;6.32;;;1.23;;
44169;SDS011;29836;52.286;9.576;2024-01-15T10:43:29;2.60;;;0.98;;
44169;SDS011;29836;52.286;9.576;2024-01-15T10:45:55;4.32;;;1.10;;
44169;SDS011;29836;52.286;9.576;2024-01-15T10:48:20;1.83;;;0.98;;
44169;SDS011;29836;52.286;9.576;2024-01-15T10:50:46;7.07;;;1.48;;
44169;SDS011;29836;52.286;9.576;2024-01-15T10:53:13;2.53;;;0.98;;
44169;SDS011;29836;52.286;9.576;2024-01-15T10:55:40;3.05;;;0.90;;
44169;SDS011;29836;52.286;9.576;2024-01-15T10:58:07;4.80;;;1.15;;
44169;SDS011;29836;52.286;9.576;2024-01-15T11:00:34;2.63;;;1.13;;
44169;SDS011;29836;52.286;9.576;2024-01-15T11:03:01;1.35;;;1.00;;
44169;SDS011;29836;52.286;9.576;2024-01-15T11:05:28;2.85;;;0.90;;
44169;SDS011;29836;52.286;9.576;2024-01-15T11:07:58;5.53;;;0.90;;
44169;SDS011;29836;52.286;9.576;2024-01-15T11:13:10;3.20;;;1.42;;
44169;SDS011;29836;52.286;9.576;2024-01-15T11:16:05;4.13;;;2.00;;
44169;SDS011;29836;52.286;9.576;2024-01-15T11:18:35;3.70;;;1.58;;
44169;SDS011;29836;52.286;9.576;2024-01-15T11:24:00;3.42;;;1.55;;
44169;SDS011;29836;52.286;9.576;2024-01-15T11:26:27;2.33;;;1.20;;
44169;SDS011;29836;52.286;9.576;2024-01-15T11:28:54;6.00;;;2.05;;
44169;SDS011;29836;52.286;9.576;2024-01-15T11:31:25;5.30;;;1.65;;
44169;SDS011;29836;52.286;9.576;2024-01-15T11:33:54;9.05;;;2.03;;
44169;SDS011;29836;52.286;9.576;2024-01-15T11:36:21;8.43;;;2.42;;
44169;SDS011;29836;52.286;9.576;2024-01-15T11:41:51;4.78;;;1.60;;
44169;SDS011;29836;52.286;9.576;2024-01-15T11:44:21;8.02;;;2.10;;
44169;SDS011;29836;52.286;9.576;2024-01-15T11:46:57;4.35;;;1.38;;
44169;SDS011;29836;52.286;9.576;2024-01-15T11:52:11;5.55;;;2.55;;
44169;SDS011;29836;52.286;9.576;2024-01-15T11:54:39;4.45;;;1.40;;
44169;SDS011;29836;52.286;9.576;2024-01-15T11:57:08;5.57;;;2.00;;
44169;SDS011;29836;52.286;9.576;2024-01-15T11:59:38;2.25;;;1.25;;
44169;SDS011;29836;52.286;9.576;2024-01-15T12:02:04;7.32;;;1.40;;
44169;SDS011;29836;52.286;9.576;2024-01-15T12:04:30;3.97;;;1.30;;
44169;SDS011;29836;52.286;9.576;2024-01-15T12:06:55;4.15;;;1.35;;
44169;SDS011;29836;52.286;9.576;2024-01-15T12:09:21;3.20;;;1.58;;
44169;SDS011;29836;52.286;9.576;2024-01-15T12:11:48;5.10;;;1.23;;
44169;SDS011;29836;52.286;9.576;2024-01-15T12:14:20;6.25;;;1.20;;
44169;SDS011;29836;52.286;9.576;2024-01-15T12:16:47;8.27;;;2.10;;
44169;SDS011;29836;52.286;9.576;2024-01-15T12:19:13;5.97;;;1.27;;
44169;SDS011;29836;52.286;9.576;2024-01-15T12:21:39;5.32;;;1.23;;
44169;SDS011;29836;52.286;9.576;2024-01-15T12:24:07;3.65;;;1.05;;
44169;SDS011;29836;52.286;9.576;2024-01-15T12:26:32;5.05;;;1.25;;
44169;SDS011;29836;52.286;9.576;2024-01-15T12:29:01;2.65;;;1.30;;
44169;SDS011;29836;52.286;9.576;2024-01-15T12:31:27;6.38;;;2.10;;
44169;SDS011;29836;52.286;9.576;2024-01-15T12:33:52;6.47;;;1.20;;
44169;SDS011;29836;52.286;9.576;2024-01-15T12:36:21;5.03;;;1.45;;
44169;SDS011;29836;52.286;9.576;2024-01-15T12:38:47;5.95;;;1.40;;
44169;SDS011;29836;52.286;9.576;2024-01-15T12:41:12;3.42;;;1.27;;
44169;SDS011;29836;52.286;9.576;2024-01-15T12:43:38;6.70;;;1.70;;
44169;SDS011;29836;52.286;9.576;2024-01-15T12:46:05;2.50;;;1.40;;
44169;SDS011;29836;52.286;9.576;2024-01-15T12:48:31;5.68;;;1.60;;
44169;SDS011;29836;52.286;9.576;2024-01-15T12:50:56;3.63;;;1.25;;
44169;SDS011;29836;52.286;9.576;2024-01-15T12:53:22;5.85;;;1.60;;
44169;SDS011;29836;52.286;9.576;2024-01-15T12:55:47;9.02;;;3.05;;
44169;SDS011;29836;52.286;9.576;2024-01-15T12:58:13;3.83;;;1.20;;
44169;SDS011;29836;52.286;9.576;2024-01-15T13:00:38;5.90;;;1.48;;
44169;SDS011;29836;52.286;9.576;2024-01-15T13:03:04;8.90;;;3.50;;
44169;SDS011;29836;52.286;9.576;2024-01-15T13:05:31;6.47;;;2.05;;
44169;SDS011;29836;52.286;9.576;2024-01-15T13:07:58;4.88;;;2.42;;
44169;SDS011;29836;52.286;9.576;2024-01-15T13:10:24;4.38;;;2.13;;
44169;SDS011;29836;52.286;9.576;2024-01-15T13:12:50;6.45;;;1.02;;
44169;SDS011;29836;52.286;9.576;2024-01-15T13:15:16;7.03;;;1.75;;
44169;SDS011;29836;52.286;9.576;2024-01-15T13:17:42;4.22;;;1.55;;
44169;SDS011;29836;52.286;9.576;2024-01-15T13:20:08;6.45;;;1.92;;
44169;SDS011;29836;52.286;9.576;2024-01-15T13:22:34;4.00;;;1.27;;
44169;SDS011;29836;52.286;9.576;2024-01-15T13:24:59;5.50;;;1.75;;
44169;SDS011;29836;52.286;9.576;2024-01-15T13:27:25;4.75;;;1.85;;
44169;SDS011;29836;52.286;9.576;2024-01-15T13:29:51;3.53;;;1.30;;
44169;SDS011;29836;52.286;9.576;2024-01-15T13:32:20;6.35;;;2.22;;
44169;SDS011;29836;52.286;9.576;2024-01-15T13:34:50;5.55;;;1.90;;
44169;SDS011;29836;52.286;9.576;2024-01-15T13:37:16;5.60;;;1.50;;
44169;SDS011;29836;52.286;9.576;2024-01-15T13:39:42;3.42;;;1.67;;
44169;SDS011;29836;52.286;9.576;2024-01-15T13:42:08;4.13;;;1.75;;
44169;SDS011;29836;52.286;9.576;2024-01-15T13:44:36;3.30;;;1.67;;
44169;SDS011;29836;52.286;9.576;2024-01-15T13:47:03;4.43;;;2.05;;
44169;SDS011;29836;52.286;9.576;2024-01-15T13:49:30;5.38;;;1.48;;
44169;SDS011;29836;52.286;9.576;2024-01-15T13:51:56;3.67;;;1.38;;
44169;SDS011;29836;52.286;9.576;2024-01-15T13:54:22;3.58;;;1.35;;
44169;SDS011;29836;52.286;9.576;2024-01-15T13:56:48;3.53;;;1.70;;
44169;SDS011;29836;52.286;9.576;2024-01-15T13:59:15;3.88;;;1.50;;
44169;SDS011;29836;52.286;9.576;2024-01-15T14:01:41;4.22;;;0.90;;
44169;SDS011;29836;52.286;9.576;2024-01-15T14:04:08;3.60;;;1.20;;
44169;SDS011;29836;52.286;9.576;2024-01-15T14:06:35;4.38;;;1.60;;
44169;SDS011;29836;52.286;9.576;2024-01-15T14:09:01;5.25;;;1.38;;
44169;SDS011;29836;52.286;9.576;2024-01-15T14:11:29;4.45;;;1.30;;
44169;SDS011;29836;52.286;9.576;2024-01-15T14:13:55;2.75;;;1.58;;
44169;SDS011;29836;52.286;9.576;2024-01-15T14:16:22;4.05;;;1.38;;
44169;SDS011;29836;52.286;9.576;2024-01-15T14:18:47;5.45;;;1.05;;
44169;SDS011;29836;52.286;9.576;2024-01-15T14:21:14;2.58;;;0.90;;
44169;SDS011;29836;52.286;9.576;2024-01-15T14:23:43;1.98;;;0.85;;
44169;SDS011;29836;52.286;9.576;2024-01-15T14:26:09;3.53;;;1.27;;
44169;SDS011;29836;52.286;9.576;2024-01-15T14:28:34;4.18;;;0.90;;
44169;SDS011;29836;52.286;9.576;2024-01-15T14:31:00;4.55;;;1.30;;
44169;SDS011;29836;52.286;9.576;2024-01-15T14:33:27;6.88;;;1.15;;
44169;SDS011;29836;52.286;9.576;2024-01-15T14:35:53;5.60;;;1.60;;
44169;SDS011;29836;52.286;9.576;2024-01-15T14:38:20;3.42;;;1.33;;
44169;SDS011;29836;52.286;9.576;2024-01-15T14:40:46;4.57;;;2.13;;
44169;SDS011;29836;52.286;9.576;2024-01-15T14:43:12;3.20;;;1.27;;
44169;SDS011;29836;52.286;9.576;2024-01-15T14:45:38;3.35;;;1.55;;
44169;SDS011;29836;52.286;9.576;2024-01-15T14:48:04;4.43;;;1.52;;
44169;SDS011;29836;52.286;9.576;2024-01-15T14:50:30;3.30;;;1.30;;
44169;SDS011;29836;52.286;9.576;2024-01-15T14:52:55;3.75;;;1.73;;